Aérodrome :







RETROUVEZ-NOUS SUR...

 
LOGIN :

S'inscrire | Disclaimer

   EN    FR    IT 

 









Légende :    VFR   VFR Marginal   IFR   IFR Intensif   IFR Très Intensif
Visi : 
Plafond : 
>= 8 km
>= 3000ft
5 à 8 km
1000 à 3000 ft
1500m à 5 km
500 à 1000 ft
800 à 1500m
200 à 500 ft
< 800m
< 200 ft
Symboles :   Orages  Brouillard  Fortes neiges  Fortes précipitations  Vent > 20 kt






- Altitude de l'aérodrome : 11 ft


KGHG - Marshfield Municipal George Harlow Field

DERNIER METAR :
  • 261655Z AUTO VRB05KT 10SM OVC004 08/06 A3000 RMK AO2

METARs EXPIRÉS :
  • 261635Z AUTO 02005KT 10SM OVC005 08/06 A3000 RMK AO2
  • 261615Z AUTO 00000KT 10SM OVC005 07/06 A3000 RMK AO2
  • 261555Z AUTO 02005KT 10SM OVC005 07/06 A2999 RMK AO2
  • 261535Z AUTO VRB03KT 10SM OVC005 07/06 A2999 RMK AO2
  • 261515Z AUTO VRB04KT 10SM OVC006 07/05 A3000 RMK AO2
  • 261455Z AUTO 34005KT 10SM OVC006 07/05 A3000 RMK AO2
  • 261435Z AUTO VRB03KT 10SM OVC006 07/06 A3000 RMK AO2
  • 261415Z AUTO VRB04G10KT 10SM BKN006 OVC050 07/06 A2999 RMK AO2

TAF N/A



MET'MAP, la Météo Aéronautique d'un coup d'oeil ! - Copyright ORBIFLY Décembre 2007 - Disclaimer

ORBIFLY MET'MAP TEAM :

Programmation & Développement : Alexandra Zaïnal
Sur une idée originale de : Baudouin d'Aumeries
Assistance à la programmation : Marc-Olivier Méhu
Soutien technique & logistique : Manuel Goepfert

Contact : metmap@orbifly.com




SOURCES & CREDITS :

   NOAA